Pittsburgh, PA (15202)

12:11 PM EDT on July 24, 2016 (GMT -0400)
Ben Avon | | Change Station
Active Advisory: Heat Advisory Active Notice: Local Storm Report

Elev 869 ft 40.51 °N, 80.08 °W | Updated 42 seconds ago

Mostly Cloudy
Mostly Cloudy
94.3 °F
Feels Like 104 °F
N
1.8
Wind Variable Wind from NNE
Gusts 3.7 mph

Today
High -- | Low -- °F
--% Chance of Precip.
Yesterday
High -- | Low -- °F
Precip. -- in
Pressure 30.02 in
Visibility 10.0 miles
Clouds Few 5500 ft
Mostly Cloudy 25000 ft
Heat Index 104 °F
Dew Point 73 °F
Humidity 50%
Rainfall 0.00 in
Snow Depth Not available.
6:10 AM 8:42 PM
Waning Gibbous, 75% visible
METAR KPIT 241551Z 16006KT 10SM FEW055 BKN250 30/19 A3003 RMK AO2 SLP166 T03000194
Pressure 30.02 in
Visibility 10.0 miles
Clouds Few 5500 ft
Mostly Cloudy 25000 ft
Heat Index 104 °F
Dew Point 73 °F
Humidity 50%
Rainfall 0.00 in
Snow Depth Not available.
6:10 AM 8:42 PM
Waning Gibbous, 75% visible
METAR KPIT 241551Z 16006KT 10SM FEW055 BKN250 30/19 A3003 RMK AO2 SLP166 T03000194

10-Day Weather Forecast

Almanac

Astronomy

Jul. 24, 2016 Rise Set
Actual Time
Civil Twilight
Nautical Twilight
Astronomical Twilight
Moon
Length of Visible Light
Length of Day
Tomorrow will be .
, % of the Moon is Illuminated

Today's Extremes

State Highs State Lows

Community

WunderPhotos

Upload Photos

1,927,117 photos uploaded!

WunderBlog® & News

Nearby

Air Quality

  Air Quality AQ Index Pollutant
Not available.

Snow Depth

Station Depth Elevation

Earthquake Activity

City Distance Mag. Time & Date
Minimum magnitude displayed is 2.5.

Coastal Water Temperatures

Place Temperature

Stations

Nearby Weather Stations

Station Location Temp. Windchill Dew Point Humidity Wind Precip. Elev Updated Type
                   

Watches & Warnings

Heat Advisory
Issued: 10:57 AM EDT Jul. 24, 2016 – National Weather Service

... Heat advisory remains in effect until 8 PM EDT this evening...

* heat index values... between 100 to 104 are forecast this
afternoon and evening.

* High temperatures... lower to mid 90s.

* Dewpoints... lower 70s.

* Impacts... heat related illnesses will begin to be seen. If you
are susceptible to heat... limit your outdoor activity.

Precautionary/preparedness actions...

Drink plenty of fluids... stay in air-conditioning... stay out of
the sun... and check up on elderly relatives and neighbors. Look
before you lock... never leave children and pets unattended in a
vehicle.



98